CheckWX is a tool to help pilots better visualize weather data.  It is not intended as a substitute for an official pre-flight weather briefing.

12:21:28 UTC

KDSV METAR
Dansville Municipal Airport
Dansville, New York, USA
Current

27 mins ago

KDSV 251154Z AUTO 01004KT 10SM OVC050 M01/M11 A3019 RMK AO2 SLP239 T10061111 10022 21006 51019
Observed
Mar-25 @ 11:54 UTC
Wind
  • 010° at 4 KTS
Visibility
10 SM
Flight Rules
VFR
Cloud Levels
  • Overcast at 5,000' AGL
Temperature
-1°C / 30°F
Dewpoint
-11°C / 12°F
Humidity
47%
Altimeter
30.19" Hg
Pressure
1023.9 hPa
Previous

1 hour ago

KDSV 251054Z AUTO 03006KT 10SM OVC048 M01/M08 A3018 RMK AO2 SLP232 T10061083
Observed
Mar-25 @ 10:54 UTC
Wind
  • 030° at 6 KTS
Visibility
10 SM
Flight Rules
VFR
Cloud Levels
  • Overcast at 4,800' AGL
Temperature
-1°C / 30°F
Dewpoint
-8°C / 18°F
Humidity
59%
Altimeter
30.18" Hg
Pressure
1023.2 hPa
Previous

2 hours ago

KDSV 251013Z AUTO 01008KT 10SM SCT028 SCT034 OVC047 00/M08 A3017 RMK AO2 T00001083
Observed
Mar-25 @ 10:13 UTC
Wind
  • 010° at 8 KTS
Visibility
10 SM
Flight Rules
VFR
Cloud Levels
  • Scattered at 2,800' AGL
  • Scattered at 3,400' AGL
  • Overcast at 4,700' AGL
Temperature
C / 32°F
Dewpoint
-8°C / 18°F
Humidity
55%
Altimeter
30.17" Hg
Pressure
1021.72 hPa